sensor_id;sensor_type;location;lat;lon;timestamp;P1;durP1;ratioP1;P2;durP2;ratioP2
74689;SDS011;63221;51.860;-2.188;2023-04-03T00:00:45;6.07;;;1.33;;
74689;SDS011;63221;51.860;-2.188;2023-04-03T00:03:10;4.73;;;0.60;;
74689;SDS011;63221;51.860;-2.188;2023-04-03T00:05:35;2.37;;;0.67;;
74689;SDS011;63221;51.860;-2.188;2023-04-03T00:08:01;3.30;;;1.00;;
74689;SDS011;63221;51.860;-2.188;2023-04-03T00:10:27;5.78;;;1.38;;
74689;SDS011;63221;51.860;-2.188;2023-04-03T00:12:52;4.20;;;0.90;;
74689;SDS011;63221;51.860;-2.188;2023-04-03T00:15:18;4.55;;;1.13;;
74689;SDS011;63221;51.860;-2.188;2023-04-03T00:17:44;6.13;;;1.70;;
74689;SDS011;63221;51.860;-2.188;2023-04-03T00:20:09;3.93;;;1.30;;
74689;SDS011;63221;51.860;-2.188;2023-04-03T00:22:35;5.20;;;0.77;;
74689;SDS011;63221;51.860;-2.188;2023-04-03T00:25:00;4.43;;;1.30;;
74689;SDS011;63221;51.860;-2.188;2023-04-03T00:27:26;3.40;;;1.17;;
74689;SDS011;63221;51.860;-2.188;2023-04-03T00:29:51;1.73;;;0.70;;
74689;SDS011;63221;51.860;-2.188;2023-04-03T00:32:16;3.63;;;0.77;;
74689;SDS011;63221;51.860;-2.188;2023-04-03T00:34:42;5.37;;;1.10;;
74689;SDS011;63221;51.860;-2.188;2023-04-03T00:37:07;4.97;;;1.20;;
74689;SDS011;63221;51.860;-2.188;2023-04-03T00:39:33;4.45;;;1.38;;
74689;SDS011;63221;51.860;-2.188;2023-04-03T00:41:58;3.43;;;1.70;;
74689;SDS011;63221;51.860;-2.188;2023-04-03T00:46:58;5.93;;;0.90;;
74689;SDS011;63221;51.860;-2.188;2023-04-03T00:49:25;4.68;;;1.25;;
74689;SDS011;63221;51.860;-2.188;2023-04-03T00:51:51;4.07;;;0.83;;
74689;SDS011;63221;51.860;-2.188;2023-04-03T00:54:17;2.67;;;0.90;;
74689;SDS011;63221;51.860;-2.188;2023-04-03T00:56:43;4.20;;;1.00;;
74689;SDS011;63221;51.860;-2.188;2023-04-03T00:59:13;4.65;;;1.23;;
74689;SDS011;63221;51.860;-2.188;2023-04-03T01:01:41;1.73;;;1.00;;
74689;SDS011;63221;51.860;-2.188;2023-04-03T01:04:24;5.20;;;1.17;;
74689;SDS011;63221;51.860;-2.188;2023-04-03T01:07:06;3.55;;;0.82;;
74689;SDS011;63221;51.860;-2.188;2023-04-03T01:09:35;3.55;;;1.02;;
74689;SDS011;63221;51.860;-2.188;2023-04-03T01:12:14;6.83;;;1.53;;
74689;SDS011;63221;51.860;-2.188;2023-04-03T01:14:44;4.90;;;1.25;;
74689;SDS011;63221;51.860;-2.188;2023-04-03T01:17:30;7.82;;;1.23;;
74689;SDS011;63221;51.860;-2.188;2023-04-03T01:22:35;4.23;;;1.17;;
74689;SDS011;63221;51.860;-2.188;2023-04-03T01:25:11;3.45;;;1.05;;
74689;SDS011;63221;51.860;-2.188;2023-04-03T01:27:36;4.43;;;1.43;;
74689;SDS011;63221;51.860;-2.188;2023-04-03T01:30:02;4.55;;;1.17;;
74689;SDS011;63221;51.860;-2.188;2023-04-03T01:32:27;4.00;;;1.27;;
74689;SDS011;63221;51.860;-2.188;2023-04-03T01:34:53;2.33;;;0.60;;
74689;SDS011;63221;51.860;-2.188;2023-04-03T01:37:18;3.47;;;1.07;;
74689;SDS011;63221;51.860;-2.188;2023-04-03T01:39:43;4.77;;;1.30;;
74689;SDS011;63221;51.860;-2.188;2023-04-03T01:42:09;4.50;;;1.00;;
74689;SDS011;63221;51.860;-2.188;2023-04-03T01:44:36;2.55;;;1.13;;
74689;SDS011;63221;51.860;-2.188;2023-04-03T01:47:02;6.13;;;1.23;;
74689;SDS011;63221;51.860;-2.188;2023-04-03T01:49:27;4.40;;;1.77;;
74689;SDS011;63221;51.860;-2.188;2023-04-03T01:51:53;5.43;;;1.47;;
74689;SDS011;63221;51.860;-2.188;2023-04-03T01:54:18;3.93;;;1.00;;
74689;SDS011;63221;51.860;-2.188;2023-04-03T01:56:44;3.53;;;1.33;;
74689;SDS011;63221;51.860;-2.188;2023-04-03T01:59:09;6.80;;;2.00;;
74689;SDS011;63221;51.860;-2.188;2023-04-03T02:01:35;7.07;;;1.40;;
74689;SDS011;63221;51.860;-2.188;2023-04-03T02:04:01;2.55;;;1.35;;
74689;SDS011;63221;51.860;-2.188;2023-04-03T02:06:26;3.67;;;0.97;;
74689;SDS011;63221;51.860;-2.188;2023-04-03T02:08:51;3.53;;;0.60;;
74689;SDS011;63221;51.860;-2.188;2023-04-03T02:11:17;3.28;;;1.50;;
74689;SDS011;63221;51.860;-2.188;2023-04-03T02:13:42;2.50;;;0.80;;
74689;SDS011;63221;51.860;-2.188;2023-04-03T02:16:09;4.37;;;1.33;;
74689;SDS011;63221;51.860;-2.188;2023-04-03T02:18:36;5.53;;;0.77;;
74689;SDS011;63221;51.860;-2.188;2023-04-03T02:21:01;8.30;;;1.30;;
74689;SDS011;63221;51.860;-2.188;2023-04-03T02:23:27;4.95;;;1.13;;
74689;SDS011;63221;51.860;-2.188;2023-04-03T02:25:52;2.10;;;1.27;;
74689;SDS011;63221;51.860;-2.188;2023-04-03T02:28:18;2.60;;;0.73;;
74689;SDS011;63221;51.860;-2.188;2023-04-03T02:30:43;5.13;;;1.23;;
74689;SDS011;63221;51.860;-2.188;2023-04-03T02:33:08;5.60;;;1.67;;
74689;SDS011;63221;51.860;-2.188;2023-04-03T02:35:34;4.60;;;1.40;;
74689;SDS011;63221;51.860;-2.188;2023-04-03T02:37:59;3.23;;;1.27;;
74689;SDS011;63221;51.860;-2.188;2023-04-03T02:40:25;3.70;;;1.43;;
74689;SDS011;63221;51.860;-2.188;2023-04-03T02:42:50;3.73;;;1.63;;
74689;SDS011;63221;51.860;-2.188;2023-04-03T02:45:16;4.57;;;1.25;;
74689;SDS011;63221;51.860;-2.188;2023-04-03T02:47:41;1.83;;;0.77;;
74689;SDS011;63221;51.860;-2.188;2023-04-03T02:50:06;4.27;;;1.30;;
74689;SDS011;63221;51.860;-2.188;2023-04-03T02:52:32;6.15;;;1.67;;
74689;SDS011;63221;51.860;-2.188;2023-04-03T02:54:57;5.37;;;1.63;;
74689;SDS011;63221;51.860;-2.188;2023-04-03T02:57:23;4.30;;;1.07;;
74689;SDS011;63221;51.860;-2.188;2023-04-03T02:59:48;4.67;;;1.10;;
74689;SDS011;63221;51.860;-2.188;2023-04-03T03:02:14;4.37;;;0.90;;
74689;SDS011;63221;51.860;-2.188;2023-04-03T03:04:39;3.60;;;1.63;;
74689;SDS011;63221;51.860;-2.188;2023-04-03T03:07:05;4.90;;;1.70;;
74689;SDS011;63221;51.860;-2.188;2023-04-03T03:09:30;5.60;;;1.30;;
74689;SDS011;63221;51.860;-2.188;2023-04-03T03:11:56;3.37;;;1.50;;
74689;SDS011;63221;51.860;-2.188;2023-04-03T03:14:22;4.23;;;1.43;;
74689;SDS011;63221;51.860;-2.188;2023-04-03T03:16:48;3.95;;;0.77;;
74689;SDS011;63221;51.860;-2.188;2023-04-03T03:19:13;2.72;;;1.20;;
74689;SDS011;63221;51.860;-2.188;2023-04-03T03:21:39;6.73;;;1.27;;
74689;SDS011;63221;51.860;-2.188;2023-04-03T03:24:04;6.47;;;1.57;;
74689;SDS011;63221;51.860;-2.188;2023-04-03T03:26:30;5.82;;;1.42;;
74689;SDS011;63221;51.860;-2.188;2023-04-03T03:28:55;2.30;;;1.23;;
74689;SDS011;63221;51.860;-2.188;2023-04-03T03:31:21;4.90;;;1.40;;
74689;SDS011;63221;51.860;-2.188;2023-04-03T03:33:46;5.32;;;1.10;;
74689;SDS011;63221;51.860;-2.188;2023-04-03T03:36:12;2.17;;;0.77;;
74689;SDS011;63221;51.860;-2.188;2023-04-03T03:38:37;4.67;;;1.83;;
74689;SDS011;63221;51.860;-2.188;2023-04-03T03:41:02;2.53;;;1.00;;
74689;SDS011;63221;51.860;-2.188;2023-04-03T03:43:28;5.70;;;1.33;;
74689;SDS011;63221;51.860;-2.188;2023-04-03T03:45:53;4.13;;;0.90;;
74689;SDS011;63221;51.860;-2.188;2023-04-03T03:48:20;4.97;;;1.00;;
74689;SDS011;63221;51.860;-2.188;2023-04-03T03:50:45;3.42;;;1.20;;
74689;SDS011;63221;51.860;-2.188;2023-04-03T03:53:11;4.93;;;1.30;;
74689;SDS011;63221;51.860;-2.188;2023-04-03T03:55:36;2.37;;;0.53;;
74689;SDS011;63221;51.860;-2.188;2023-04-03T03:58:02;3.43;;;1.27;;
74689;SDS011;63221;51.860;-2.188;2023-04-03T04:00:28;3.38;;;1.13;;
74689;SDS011;63221;51.860;-2.188;2023-04-03T04:02:54;4.70;;;1.30;;
74689;SDS011;63221;51.860;-2.188;2023-04-03T04:05:20;7.35;;;0.85;;
74689;SDS011;63221;51.860;-2.188;2023-04-03T04:07:46;4.47;;;0.80;;
74689;SDS011;63221;51.860;-2.188;2023-04-03T04:10:11;6.37;;;1.63;;
74689;SDS011;63221;51.860;-2.188;2023-04-03T04:12:38;4.93;;;1.55;;
74689;SDS011;63221;51.860;-2.188;2023-04-03T04:15:04;3.63;;;1.57;;
74689;SDS011;63221;51.860;-2.188;2023-04-03T04:17:30;3.83;;;1.42;;
74689;SDS011;63221;51.860;-2.188;2023-04-03T04:19:55;3.47;;;1.60;;
74689;SDS011;63221;51.860;-2.188;2023-04-03T04:22:21;3.92;;;1.27;;
74689;SDS011;63221;51.860;-2.188;2023-04-03T04:24:46;4.07;;;1.60;;
74689;SDS011;63221;51.860;-2.188;2023-04-03T04:27:11;3.87;;;1.33;;
74689;SDS011;63221;51.860;-2.188;2023-04-03T04:29:37;4.23;;;1.60;;
74689;SDS011;63221;51.860;-2.188;2023-04-03T04:32:03;5.43;;;0.98;;
74689;SDS011;63221;51.860;-2.188;2023-04-03T04:34:29;5.43;;;1.60;;
74689;SDS011;63221;51.860;-2.188;2023-04-03T04:36:54;6.18;;;1.48;;
74689;SDS011;63221;51.860;-2.188;2023-04-03T04:39:20;5.07;;;1.43;;
74689;SDS011;63221;51.860;-2.188;2023-04-03T04:41:45;2.75;;;1.38;;
74689;SDS011;63221;51.860;-2.188;2023-04-03T04:44:11;4.43;;;1.70;;
74689;SDS011;63221;51.860;-2.188;2023-04-03T04:46:36;3.23;;;1.23;;
74689;SDS011;63221;51.860;-2.188;2023-04-03T04:49:02;3.27;;;1.67;;
74689;SDS011;63221;51.860;-2.188;2023-04-03T04:51:27;5.32;;;1.27;;
74689;SDS011;63221;51.860;-2.188;2023-04-03T04:53:52;3.37;;;1.43;;
74689;SDS011;63221;51.860;-2.188;2023-04-03T04:56:18;8.07;;;1.97;;
74689;SDS011;63221;51.860;-2.188;2023-04-03T04:58:43;2.50;;;1.20;;
74689;SDS011;63221;51.860;-2.188;2023-04-03T05:01:10;5.63;;;1.70;;
74689;SDS011;63221;51.860;-2.188;2023-04-03T05:03:35;4.65;;;1.35;;
74689;SDS011;63221;51.860;-2.188;2023-04-03T05:06:01;7.27;;;1.73;;
74689;SDS011;63221;51.860;-2.188;2023-04-03T05:08:26;3.85;;;1.45;;
74689;SDS011;63221;51.860;-2.188;2023-04-03T05:10:52;5.03;;;0.70;;
74689;SDS011;63221;51.860;-2.188;2023-04-03T05:13:18;7.43;;;1.40;;
74689;SDS011;63221;51.860;-2.188;2023-04-03T05:15:44;4.22;;;0.98;;
74689;SDS011;63221;51.860;-2.188;2023-04-03T05:18:10;4.53;;;1.93;;
74689;SDS011;63221;51.860;-2.188;2023-04-03T05:20:35;2.83;;;1.10;;
74689;SDS011;63221;51.860;-2.188;2023-04-03T05:23:02;4.55;;;1.35;;
74689;SDS011;63221;51.860;-2.188;2023-04-03T05:25:27;6.50;;;2.30;;
74689;SDS011;63221;51.860;-2.188;2023-04-03T05:27:53;3.60;;;1.00;;
74689;SDS011;63221;51.860;-2.188;2023-04-03T05:30:18;5.03;;;1.73;;
74689;SDS011;63221;51.860;-2.188;2023-04-03T05:32:43;2.60;;;1.48;;
74689;SDS011;63221;51.860;-2.188;2023-04-03T05:35:09;6.50;;;1.50;;
74689;SDS011;63221;51.860;-2.188;2023-04-03T05:37:35;3.70;;;1.30;;
74689;SDS011;63221;51.860;-2.188;2023-04-03T05:40:00;4.53;;;1.37;;
74689;SDS011;63221;51.860;-2.188;2023-04-03T05:42:26;6.00;;;1.23;;
74689;SDS011;63221;51.860;-2.188;2023-04-03T05:44:51;3.97;;;1.27;;
74689;SDS011;63221;51.860;-2.188;2023-04-03T05:47:17;9.40;;;1.90;;
74689;SDS011;63221;51.860;-2.188;2023-04-03T05:49:43;4.03;;;1.23;;
74689;SDS011;63221;51.860;-2.188;2023-04-03T05:52:52;6.03;;;1.70;;
74689;SDS011;63221;51.860;-2.188;2023-04-03T05:55:00;8.03;;;2.17;;
74689;SDS011;63221;51.860;-2.188;2023-04-03T05:57:25;6.95;;;3.03;;
74689;SDS011;63221;51.860;-2.188;2023-04-03T05:59:51;4.67;;;2.03;;
74689;SDS011;63221;51.860;-2.188;2023-04-03T06:02:20;6.20;;;1.83;;
74689;SDS011;63221;51.860;-2.188;2023-04-03T06:04:47;5.70;;;1.73;;
74689;SDS011;63221;51.860;-2.188;2023-04-03T06:07:20;3.90;;;1.88;;
74689;SDS011;63221;51.860;-2.188;2023-04-03T06:09:47;6.90;;;2.07;;
74689;SDS011;63221;51.860;-2.188;2023-04-03T06:12:13;7.60;;;2.42;;
74689;SDS011;63221;51.860;-2.188;2023-04-03T06:14:39;5.32;;;1.50;;
74689;SDS011;63221;51.860;-2.188;2023-04-03T06:17:06;3.63;;;1.52;;
74689;SDS011;63221;51.860;-2.188;2023-04-03T06:19:33;6.47;;;1.33;;
74689;SDS011;63221;51.860;-2.188;2023-04-03T06:21:59;3.35;;;1.40;;
74689;SDS011;63221;51.860;-2.188;2023-04-03T06:24:25;4.72;;;1.60;;
74689;SDS011;63221;51.860;-2.188;2023-04-03T06:26:51;4.40;;;1.63;;
74689;SDS011;63221;51.860;-2.188;2023-04-03T06:29:17;2.63;;;1.20;;
74689;SDS011;63221;51.860;-2.188;2023-04-03T06:31:44;6.15;;;1.95;;
74689;SDS011;63221;51.860;-2.188;2023-04-03T06:34:09;5.43;;;1.53;;
74689;SDS011;63221;51.860;-2.188;2023-04-03T06:36:36;7.83;;;1.63;;
74689;SDS011;63221;51.860;-2.188;2023-04-03T06:39:01;9.63;;;1.85;;
74689;SDS011;63221;51.860;-2.188;2023-04-03T06:41:28;5.88;;;1.40;;
74689;SDS011;63221;51.860;-2.188;2023-04-03T06:43:53;6.50;;;1.10;;
74689;SDS011;63221;51.860;-2.188;2023-04-03T06:46:21;4.38;;;2.00;;
74689;SDS011;63221;51.860;-2.188;2023-04-03T06:48:47;2.73;;;1.20;;
74689;SDS011;63221;51.860;-2.188;2023-04-03T06:51:24;4.57;;;1.23;;
74689;SDS011;63221;51.860;-2.188;2023-04-03T06:53:51;3.55;;;1.50;;
74689;SDS011;63221;51.860;-2.188;2023-04-03T06:56:18;4.03;;;1.17;;
74689;SDS011;63221;51.860;-2.188;2023-04-03T06:58:44;2.72;;;1.05;;
74689;SDS011;63221;51.860;-2.188;2023-04-03T07:01:10;4.63;;;2.10;;
74689;SDS011;63221;51.860;-2.188;2023-04-03T07:03:37;3.50;;;1.00;;
74689;SDS011;63221;51.860;-2.188;2023-04-03T07:06:03;5.00;;;1.65;;
74689;SDS011;63221;51.860;-2.188;2023-04-03T07:08:30;4.30;;;0.88;;
74689;SDS011;63221;51.860;-2.188;2023-04-03T07:10:55;1.93;;;0.83;;
74689;SDS011;63221;51.860;-2.188;2023-04-03T07:13:21;4.57;;;1.07;;
74689;SDS011;63221;51.860;-2.188;2023-04-03T07:15:46;4.50;;;1.00;;
74689;SDS011;63221;51.860;-2.188;2023-04-03T07:18:12;5.37;;;1.37;;
74689;SDS011;63221;51.860;-2.188;2023-04-03T07:20:38;4.60;;;1.90;;
74689;SDS011;63221;51.860;-2.188;2023-04-03T07:23:04;7.88;;;2.22;;
74689;SDS011;63221;51.860;-2.188;2023-04-03T07:25:29;3.85;;;1.13;;
74689;SDS011;63221;51.860;-2.188;2023-04-03T07:27:56;5.40;;;1.60;;
74689;SDS011;63221;51.860;-2.188;2023-04-03T07:30:22;4.15;;;1.45;;
74689;SDS011;63221;51.860;-2.188;2023-04-03T07:32:48;6.50;;;2.20;;
74689;SDS011;63221;51.860;-2.188;2023-04-03T07:35:13;4.03;;;1.63;;
74689;SDS011;63221;51.860;-2.188;2023-04-03T07:37:38;4.13;;;2.03;;
74689;SDS011;63221;51.860;-2.188;2023-04-03T07:40:05;5.60;;;1.70;;
74689;SDS011;63221;51.860;-2.188;2023-04-03T07:42:31;2.83;;;1.83;;
74689;SDS011;63221;51.860;-2.188;2023-04-03T07:44:57;4.22;;;1.58;;
74689;SDS011;63221;51.860;-2.188;2023-04-03T07:47:22;3.77;;;1.77;;
74689;SDS011;63221;51.860;-2.188;2023-04-03T07:49:48;5.20;;;2.27;;
74689;SDS011;63221;51.860;-2.188;2023-04-03T07:52:13;5.90;;;2.07;;
74689;SDS011;63221;51.860;-2.188;2023-04-03T07:54:40;5.43;;;1.92;;
74689;SDS011;63221;51.860;-2.188;2023-04-03T07:57:06;6.60;;;2.10;;
74689;SDS011;63221;51.860;-2.188;2023-04-03T07:59:31;8.13;;;2.40;;
74689;SDS011;63221;51.860;-2.188;2023-04-03T08:01:57;6.60;;;1.40;;
74689;SDS011;63221;51.860;-2.188;2023-04-03T08:04:23;3.57;;;1.90;;
74689;SDS011;63221;51.860;-2.188;2023-04-03T08:06:48;5.00;;;2.23;;
74689;SDS011;63221;51.860;-2.188;2023-04-03T08:09:14;4.10;;;2.27;;
74689;SDS011;63221;51.860;-2.188;2023-04-03T08:11:40;2.40;;;1.23;;
74689;SDS011;63221;51.860;-2.188;2023-04-03T08:14:06;5.80;;;1.60;;
74689;SDS011;63221;51.860;-2.188;2023-04-03T08:16:32;5.30;;;1.50;;
74689;SDS011;63221;51.860;-2.188;2023-04-03T08:18:58;7.37;;;1.80;;
74689;SDS011;63221;51.860;-2.188;2023-04-03T08:21:24;3.15;;;1.63;;
74689;SDS011;63221;51.860;-2.188;2023-04-03T08:23:50;6.47;;;0.90;;
74689;SDS011;63221;51.860;-2.188;2023-04-03T08:26:17;3.85;;;1.25;;
74689;SDS011;63221;51.860;-2.188;2023-04-03T08:28:44;6.80;;;1.17;;
74689;SDS011;63221;51.860;-2.188;2023-04-03T08:31:11;3.33;;;1.48;;
74689;SDS011;63221;51.860;-2.188;2023-04-03T08:33:40;3.97;;;1.25;;
74689;SDS011;63221;51.860;-2.188;2023-04-03T08:36:14;1.87;;;0.67;;
74689;SDS011;63221;51.860;-2.188;2023-04-03T08:38:42;8.63;;;0.85;;
74689;SDS011;63221;51.860;-2.188;2023-04-03T08:41:11;3.13;;;1.00;;
74689;SDS011;63221;51.860;-2.188;2023-04-03T08:46:32;6.97;;;1.35;;
74689;SDS011;63221;51.860;-2.188;2023-04-03T08:49:02;2.65;;;1.10;;
74689;SDS011;63221;51.860;-2.188;2023-04-03T08:51:29;3.15;;;1.73;;
74689;SDS011;63221;51.860;-2.188;2023-04-03T08:53:57;4.60;;;1.17;;
74689;SDS011;63221;51.860;-2.188;2023-04-03T08:56:45;2.65;;;0.88;;
74689;SDS011;63221;51.860;-2.188;2023-04-03T08:59:12;1.57;;;1.17;;
74689;SDS011;63221;51.860;-2.188;2023-04-03T09:01:39;4.30;;;1.25;;
74689;SDS011;63221;51.860;-2.188;2023-04-03T09:04:13;3.55;;;1.00;;
74689;SDS011;63221;51.860;-2.188;2023-04-03T09:06:39;3.45;;;0.93;;
74689;SDS011;63221;51.860;-2.188;2023-04-03T09:16:55;2.97;;;1.52;;
74689;SDS011;63221;51.860;-2.188;2023-04-03T09:21:58;3.72;;;1.15;;
74689;SDS011;63221;51.860;-2.188;2023-04-03T09:24:24;2.50;;;0.90;;
74689;SDS011;63221;51.860;-2.188;2023-04-03T09:26:54;2.95;;;0.82;;
74689;SDS011;63221;51.860;-2.188;2023-04-03T09:29:24;4.10;;;1.05;;
74689;SDS011;63221;51.860;-2.188;2023-04-03T09:31:52;4.80;;;1.07;;
74689;SDS011;63221;51.860;-2.188;2023-04-03T09:34:28;4.55;;;1.15;;
74689;SDS011;63221;51.860;-2.188;2023-04-03T09:36:57;4.75;;;1.25;;
74689;SDS011;63221;51.860;-2.188;2023-04-03T09:39:31;3.10;;;0.80;;
74689;SDS011;63221;51.860;-2.188;2023-04-03T09:44:38;7.27;;;1.00;;
74689;SDS011;63221;51.860;-2.188;2023-04-03T09:47:46;2.78;;;1.20;;
74689;SDS011;63221;51.860;-2.188;2023-04-03T09:52:39;3.00;;;1.27;;
74689;SDS011;63221;51.860;-2.188;2023-04-03T09:55:13;6.53;;;1.20;;
74689;SDS011;63221;51.860;-2.188;2023-04-03T09:57:42;6.43;;;1.83;;
74689;SDS011;63221;51.860;-2.188;2023-04-03T10:00:53;4.72;;;1.13;;
74689;SDS011;63221;51.860;-2.188;2023-04-03T10:02:58;3.40;;;0.90;;
74689;SDS011;63221;51.860;-2.188;2023-04-03T10:05:29;4.10;;;1.40;;
74689;SDS011;63221;51.860;-2.188;2023-04-03T10:10:42;2.67;;;1.08;;
74689;SDS011;63221;51.860;-2.188;2023-04-03T10:13:16;3.88;;;1.50;;
74689;SDS011;63221;51.860;-2.188;2023-04-03T10:21:10;3.13;;;1.90;;
74689;SDS011;63221;51.860;-2.188;2023-04-03T10:23:44;3.88;;;1.35;;
74689;SDS011;63221;51.860;-2.188;2023-04-03T10:34:37;3.13;;;1.27;;
74689;SDS011;63221;51.860;-2.188;2023-04-03T10:39:41;5.68;;;1.40;;
74689;SDS011;63221;51.860;-2.188;2023-04-03T10:45:10;2.50;;;1.10;;
74689;SDS011;63221;51.860;-2.188;2023-04-03T10:50:46;3.53;;;1.15;;
74689;SDS011;63221;51.860;-2.188;2023-04-03T10:58:45;2.42;;;0.80;;
74689;SDS011;63221;51.860;-2.188;2023-04-03T11:01:16;5.57;;;1.40;;
74689;SDS011;63221;51.860;-2.188;2023-04-03T11:03:44;4.35;;;0.85;;
74689;SDS011;63221;51.860;-2.188;2023-04-03T11:06:12;2.88;;;1.63;;
74689;SDS011;63221;51.860;-2.188;2023-04-03T11:11:43;4.40;;;1.20;;
74689;SDS011;63221;51.860;-2.188;2023-04-03T11:17:10;3.92;;;1.75;;
74689;SDS011;63221;51.860;-2.188;2023-04-03T11:22:41;4.00;;;1.67;;
74689;SDS011;63221;51.860;-2.188;2023-04-03T11:30:37;5.50;;;1.88;;
74689;SDS011;63221;51.860;-2.188;2023-04-03T11:33:17;3.00;;;1.73;;
74689;SDS011;63221;51.860;-2.188;2023-04-03T11:38:47;3.95;;;1.63;;
74689;SDS011;63221;51.860;-2.188;2023-04-03T11:41:13;3.00;;;1.70;;
74689;SDS011;63221;51.860;-2.188;2023-04-03T11:43:42;4.38;;;1.92;;
74689;SDS011;63221;51.860;-2.188;2023-04-03T11:46:41;3.45;;;2.05;;
74689;SDS011;63221;51.860;-2.188;2023-04-03T12:05:54;5.28;;;2.78;;
74689;SDS011;63221;51.860;-2.188;2023-04-03T12:16:20;3.47;;;2.03;;
74689;SDS011;63221;51.860;-2.188;2023-04-03T12:45:59;2.70;;;2.25;;
74689;SDS011;63221;51.860;-2.188;2023-04-03T12:48:27;3.77;;;1.67;;
74689;SDS011;63221;51.860;-2.188;2023-04-03T12:50:54;3.60;;;1.40;;
74689;SDS011;63221;51.860;-2.188;2023-04-03T12:53:22;3.58;;;2.13;;
74689;SDS011;63221;51.860;-2.188;2023-04-03T12:55:53;5.93;;;2.67;;
74689;SDS011;63221;51.860;-2.188;2023-04-03T12:58:27;4.75;;;1.98;;
74689;SDS011;63221;51.860;-2.188;2023-04-03T13:01:00;5.60;;;1.90;;
74689;SDS011;63221;51.860;-2.188;2023-04-03T13:03:29;4.50;;;1.55;;
74689;SDS011;63221;51.860;-2.188;2023-04-03T13:05:57;3.97;;;1.88;;
74689;SDS011;63221;51.860;-2.188;2023-04-03T13:08:27;8.40;;;2.15;;
74689;SDS011;63221;51.860;-2.188;2023-04-03T13:10:54;5.20;;;2.17;;
74689;SDS011;63221;51.860;-2.188;2023-04-03T13:13:28;4.90;;;1.63;;
74689;SDS011;63221;51.860;-2.188;2023-04-03T13:15:54;4.03;;;2.20;;
74689;SDS011;63221;51.860;-2.188;2023-04-03T13:18:30;4.63;;;2.00;;
74689;SDS011;63221;51.860;-2.188;2023-04-03T13:20:58;4.00;;;1.33;;
74689;SDS011;63221;51.860;-2.188;2023-04-03T13:23:32;4.13;;;1.90;;
74689;SDS011;63221;51.860;-2.188;2023-04-03T13:26:00;4.95;;;2.03;;
74689;SDS011;63221;51.860;-2.188;2023-04-03T13:28:28;4.50;;;1.67;;
74689;SDS011;63221;51.860;-2.188;2023-04-03T13:33:43;4.13;;;1.50;;
74689;SDS011;63221;51.860;-2.188;2023-04-03T13:36:29;3.95;;;1.65;;
74689;SDS011;63221;51.860;-2.188;2023-04-03T13:39:00;6.93;;;2.45;;
74689;SDS011;63221;51.860;-2.188;2023-04-03T13:41:37;3.38;;;1.92;;
74689;SDS011;63221;51.860;-2.188;2023-04-03T13:46:47;6.30;;;2.67;;
74689;SDS011;63221;51.860;-2.188;2023-04-03T13:49:17;3.83;;;2.67;;
74689;SDS011;63221;51.860;-2.188;2023-04-03T13:51:43;4.50;;;2.28;;
74689;SDS011;63221;51.860;-2.188;2023-04-03T13:54:42;3.40;;;2.00;;
74689;SDS011;63221;51.860;-2.188;2023-04-03T13:57:03;3.67;;;2.47;;
74689;SDS011;63221;51.860;-2.188;2023-04-03T13:59:35;4.38;;;2.00;;
74689;SDS011;63221;51.860;-2.188;2023-04-03T14:04:27;5.80;;;2.53;;
74689;SDS011;63221;51.860;-2.188;2023-04-03T14:07:14;6.00;;;2.37;;
74689;SDS011;63221;51.860;-2.188;2023-04-03T14:09:41;6.70;;;1.73;;
74689;SDS011;63221;51.860;-2.188;2023-04-03T14:12:08;3.88;;;2.22;;
74689;SDS011;63221;51.860;-2.188;2023-04-03T14:14:38;5.93;;;2.20;;
74689;SDS011;63221;51.860;-2.188;2023-04-03T14:17:26;4.07;;;2.08;;
74689;SDS011;63221;51.860;-2.188;2023-04-03T14:19:52;2.90;;;2.20;;
74689;SDS011;63221;51.860;-2.188;2023-04-03T14:22:19;8.30;;;3.05;;
74689;SDS011;63221;51.860;-2.188;2023-04-03T14:24:59;5.78;;;3.45;;
74689;SDS011;63221;51.860;-2.188;2023-04-03T14:29:52;5.47;;;2.80;;
74689;SDS011;63221;51.860;-2.188;2023-04-03T14:32:20;9.07;;;2.50;;
74689;SDS011;63221;51.860;-2.188;2023-04-03T14:34:47;6.57;;;2.97;;
74689;SDS011;63221;51.860;-2.188;2023-04-03T14:37:14;5.20;;;1.83;;
74689;SDS011;63221;51.860;-2.188;2023-04-03T14:39:42;5.18;;;3.10;;
74689;SDS011;63221;51.860;-2.188;2023-04-03T14:42:12;3.33;;;2.13;;
74689;SDS011;63221;51.860;-2.188;2023-04-03T14:44:39;5.80;;;2.58;;
74689;SDS011;63221;51.860;-2.188;2023-04-03T14:47:08;4.13;;;2.38;;
74689;SDS011;63221;51.860;-2.188;2023-04-03T14:49:35;7.25;;;2.95;;
74689;SDS011;63221;51.860;-2.188;2023-04-03T14:52:00;5.60;;;2.80;;
74689;SDS011;63221;51.860;-2.188;2023-04-03T14:54:26;8.20;;;2.40;;
74689;SDS011;63221;51.860;-2.188;2023-04-03T14:56:53;4.82;;;2.58;;
74689;SDS011;63221;51.860;-2.188;2023-04-03T14:59:20;5.78;;;2.10;;
74689;SDS011;63221;51.860;-2.188;2023-04-03T15:01:46;5.80;;;2.88;;
74689;SDS011;63221;51.860;-2.188;2023-04-03T15:04:16;7.10;;;2.30;;
74689;SDS011;63221;51.860;-2.188;2023-04-03T15:06:43;3.63;;;2.28;;
74689;SDS011;63221;51.860;-2.188;2023-04-03T15:09:16;6.88;;;2.45;;
74689;SDS011;63221;51.860;-2.188;2023-04-03T15:11:44;9.73;;;3.22;;
74689;SDS011;63221;51.860;-2.188;2023-04-03T15:14:10;7.07;;;2.87;;
74689;SDS011;63221;51.860;-2.188;2023-04-03T15:16:35;4.90;;;2.40;;
74689;SDS011;63221;51.860;-2.188;2023-04-03T15:19:01;5.68;;;2.80;;
74689;SDS011;63221;51.860;-2.188;2023-04-03T15:21:26;7.30;;;2.70;;
74689;SDS011;63221;51.860;-2.188;2023-04-03T15:23:52;4.07;;;2.67;;
74689;SDS011;63221;51.860;-2.188;2023-04-03T15:26:17;4.20;;;2.40;;
74689;SDS011;63221;51.860;-2.188;2023-04-03T15:28:43;5.60;;;3.17;;
74689;SDS011;63221;51.860;-2.188;2023-04-03T15:31:09;5.43;;;2.50;;
74689;SDS011;63221;51.860;-2.188;2023-04-03T15:33:34;6.27;;;2.83;;
74689;SDS011;63221;51.860;-2.188;2023-04-03T15:36:01;4.15;;;2.78;;
74689;SDS011;63221;51.860;-2.188;2023-04-03T15:38:26;4.90;;;2.20;;
74689;SDS011;63221;51.860;-2.188;2023-04-03T15:40:53;8.40;;;3.07;;
74689;SDS011;63221;51.860;-2.188;2023-04-03T15:43:19;5.45;;;3.30;;
74689;SDS011;63221;51.860;-2.188;2023-04-03T15:45:44;6.63;;;2.50;;
74689;SDS011;63221;51.860;-2.188;2023-04-03T15:48:10;7.87;;;2.70;;
74689;SDS011;63221;51.860;-2.188;2023-04-03T15:50:36;5.37;;;2.73;;
74689;SDS011;63221;51.860;-2.188;2023-04-03T15:53:01;8.07;;;3.08;;
74689;SDS011;63221;51.860;-2.188;2023-04-03T15:55:28;5.50;;;2.80;;
74689;SDS011;63221;51.860;-2.188;2023-04-03T15:57:55;6.00;;;3.35;;
74689;SDS011;63221;51.860;-2.188;2023-04-03T16:00:21;5.53;;;2.75;;
74689;SDS011;63221;51.860;-2.188;2023-04-03T16:02:48;5.32;;;3.55;;
74689;SDS011;63221;51.860;-2.188;2023-04-03T16:05:16;3.97;;;2.60;;
74689;SDS011;63221;51.860;-2.188;2023-04-03T16:07:42;4.43;;;2.22;;
74689;SDS011;63221;51.860;-2.188;2023-04-03T16:10:08;6.80;;;2.83;;
74689;SDS011;63221;51.860;-2.188;2023-04-03T16:12:35;4.35;;;2.40;;
74689;SDS011;63221;51.860;-2.188;2023-04-03T16:15:00;6.90;;;3.28;;
74689;SDS011;63221;51.860;-2.188;2023-04-03T16:17:26;4.27;;;2.90;;
74689;SDS011;63221;51.860;-2.188;2023-04-03T16:19:52;6.13;;;3.00;;
74689;SDS011;63221;51.860;-2.188;2023-04-03T16:22:17;4.77;;;2.47;;
74689;SDS011;63221;51.860;-2.188;2023-04-03T16:24:43;4.00;;;2.50;;
74689;SDS011;63221;51.860;-2.188;2023-04-03T16:27:08;3.60;;;2.70;;
74689;SDS011;63221;51.860;-2.188;2023-04-03T16:29:34;6.25;;;2.70;;
74689;SDS011;63221;51.860;-2.188;2023-04-03T16:31:59;3.70;;;2.10;;
74689;SDS011;63221;51.860;-2.188;2023-04-03T16:34:24;6.40;;;2.93;;
74689;SDS011;63221;51.860;-2.188;2023-04-03T16:36:51;6.38;;;2.55;;
74689;SDS011;63221;51.860;-2.188;2023-04-03T16:39:17;5.78;;;2.90;;
74689;SDS011;63221;51.860;-2.188;2023-04-03T16:41:43;3.97;;;2.87;;
74689;SDS011;63221;51.860;-2.188;2023-04-03T16:44:08;7.43;;;2.90;;
74689;SDS011;63221;51.860;-2.188;2023-04-03T16:46:34;5.03;;;2.40;;
74689;SDS011;63221;51.860;-2.188;2023-04-03T16:49:00;6.63;;;2.80;;